createdAt,value
2022-09-11T00:00:20.619Z,13.20
2022-09-11T00:05:21.359Z,13.22
2022-09-11T00:10:23.812Z,13.22
2022-09-11T00:15:24.659Z,13.24
2022-09-11T00:20:25.486Z,13.28
2022-09-11T00:25:26.301Z,13.25
2022-09-11T00:30:28.374Z,13.31
2022-09-11T00:35:30.115Z,13.29
2022-09-11T00:40:31.421Z,13.30
2022-09-11T00:45:32.426Z,13.27
2022-09-11T00:50:33.901Z,13.29
2022-09-11T00:55:37.400Z,13.25
2022-09-11T01:00:42.267Z,13.33
2022-09-11T01:05:43.993Z,13.35
2022-09-11T01:11:28.826Z,13.37
2022-09-11T01:18:09.398Z,13.43
2022-09-11T01:23:45.977Z,13.36
2022-09-11T01:29:19.609Z,13.31
2022-09-11T01:34:27.005Z,13.26
2022-09-11T01:39:37.873Z,13.18
2022-09-11T01:44:44.451Z,13.11
2022-09-11T01:53:21.514Z,13.08
2022-09-11T01:58:27.369Z,13.07
2022-09-11T02:03:45.525Z,13.02
2022-09-11T02:08:54.891Z,13.00
2022-09-11T02:14:23.784Z,12.98
2022-09-11T02:19:28.614Z,12.97
2022-09-11T02:24:29.503Z,12.93
2022-09-11T02:29:30.902Z,12.91
2022-09-11T02:34:35.562Z,12.87
2022-09-11T02:46:47.922Z,12.85
2022-09-11T02:52:02.930Z,12.91
2022-09-11T02:57:54.994Z,12.85
2022-09-11T03:02:55.972Z,12.90
2022-09-11T03:07:57.406Z,12.93
2022-09-11T03:12:58.990Z,12.89
2022-09-11T03:18:00.928Z,12.89
2022-09-11T03:23:04.578Z,12.84
2022-09-11T03:28:06.329Z,12.86
2022-09-11T03:33:08.234Z,12.80
2022-09-11T03:38:09.686Z,12.83
2022-09-11T03:43:11.836Z,12.86
2022-09-11T03:48:12.655Z,12.81
2022-09-11T03:53:16.685Z,12.80
2022-09-11T03:58:18.890Z,12.77
2022-09-11T04:03:20.904Z,12.85
2022-09-11T04:08:22.221Z,12.87
2022-09-11T04:13:32.124Z,12.97
2022-09-11T04:18:36.997Z,13.11
2022-09-11T04:23:38.388Z,13.07
2022-09-11T04:28:39.249Z,13.11
2022-09-11T04:33:40.307Z,13.14
2022-09-11T04:38:41.798Z,13.01
2022-09-11T04:43:45.202Z,12.99
2022-09-11T04:48:52.905Z,13.04
2022-09-11T04:53:58.469Z,12.86
2022-09-11T04:59:06.521Z,12.97
2022-09-11T05:04:11.980Z,12.98
2022-09-11T05:09:15.398Z,12.94
2022-09-11T05:14:17.572Z,13.01
2022-09-11T05:19:21.287Z,12.98
2022-09-11T05:24:22.208Z,13.01
2022-09-11T05:29:32.208Z,13.07
2022-09-11T05:34:41.255Z,13.10
2022-09-11T05:39:43.989Z,13.15
2022-09-11T05:44:46.548Z,13.20
2022-09-11T05:49:49.173Z,13.18
2022-09-11T05:54:50.879Z,13.14
2022-09-11T05:59:52.135Z,13.15
2022-09-11T06:04:53.116Z,13.11
2022-09-11T06:10:00.914Z,13.21
2022-09-11T06:15:05.469Z,13.26
2022-09-11T06:20:11.645Z,13.24
2022-09-11T06:25:13.761Z,13.29
2022-09-11T06:30:15.071Z,13.35
2022-09-11T06:35:18.494Z,13.30
2022-09-11T06:40:19.815Z,13.31
2022-09-11T06:45:21.836Z,13.38
2022-09-11T06:50:22.948Z,13.37
2022-09-11T06:55:36.008Z,13.53
2022-09-11T07:00:40.982Z,13.54
2022-09-11T07:05:47.387Z,13.53
2022-09-11T07:10:49.076Z,13.55
2022-09-11T07:15:59.678Z,13.56
2022-09-11T07:21:04.568Z,13.72
2022-09-11T07:26:09.132Z,13.85
2022-09-11T07:31:19.963Z,14.06
2022-09-11T07:36:25.465Z,14.26
2022-09-11T07:41:27.831Z,14.31
2022-09-11T07:46:30.388Z,14.22
2022-09-11T07:51:37.232Z,14.18
2022-09-11T07:56:40.718Z,14.22
2022-09-11T08:01:42.925Z,14.28
2022-09-11T08:06:44.250Z,14.32
2022-09-11T08:11:52.676Z,14.24
2022-09-11T08:16:54.237Z,14.21
2022-09-11T08:21:55.305Z,14.33
2022-09-11T08:26:56.479Z,14.49
2022-09-11T08:32:02.189Z,14.71
2022-09-11T08:37:04.531Z,15.04
2022-09-11T08:42:15.704Z,15.06
2022-09-11T08:47:38.255Z,15.10
2022-09-11T08:52:40.687Z,15.16
2022-09-11T08:57:55.436Z,15.11
2022-09-11T09:04:09.931Z,15.07
2022-09-11T09:12:23.079Z,15.10
2022-09-11T09:17:32.336Z,15.29
2022-09-11T09:22:55.285Z,15.54
2022-09-11T09:28:34.036Z,15.62
2022-09-11T09:33:47.172Z,15.61
2022-09-11T09:38:48.951Z,16.14
2022-09-11T09:44:19.734Z,16.93
2022-09-11T09:49:27.297Z,17.30
2022-09-11T09:54:33.527Z,17.22
2022-09-11T10:00:06.606Z,16.98
2022-09-11T10:05:30.563Z,16.94
2022-09-11T10:10:37.288Z,16.73
2022-09-11T10:15:39.273Z,16.64
2022-09-11T10:20:40.545Z,16.78
2022-09-11T10:25:47.336Z,16.99
2022-09-11T10:31:01.621Z,17.36
2022-09-11T10:36:06.018Z,17.10
2022-09-11T10:41:20.186Z,17.00
2022-09-11T10:46:45.310Z,17.77
2022-09-11T10:54:40.862Z,18.90
2022-09-11T11:00:12.221Z,18.51
2022-09-11T11:05:30.582Z,18.69
2022-09-11T11:10:47.687Z,19.39
2022-09-11T11:16:13.675Z,19.95
2022-09-11T11:24:42.211Z,20.46
2022-09-11T11:30:37.921Z,19.99
2022-09-11T11:36:07.637Z,20.75
2022-09-11T11:41:34.292Z,20.50
2022-09-11T11:46:39.451Z,20.85
2022-09-11T11:51:53.343Z,20.43
2022-09-11T11:57:21.609Z,20.47
2022-09-11T12:02:34.965Z,21.04
2022-09-11T12:07:38.153Z,21.55
2022-09-11T12:12:53.425Z,21.36
2022-09-11T12:18:23.335Z,21.09
2022-09-11T12:24:08.877Z,20.70
2022-09-11T12:29:57.033Z,21.42
2022-09-11T12:35:11.613Z,20.87
2022-09-11T12:40:22.257Z,20.59
2022-09-11T12:45:36.236Z,20.85
2022-09-11T12:50:52.235Z,20.90
2022-09-11T12:56:00.265Z,21.31
2022-09-11T13:01:22.434Z,21.63
2022-09-11T13:06:35.945Z,22.42
2022-09-11T13:11:51.775Z,22.97
2022-09-11T13:16:59.533Z,23.13
2022-09-11T13:22:01.147Z,22.59
2022-09-11T13:27:27.497Z,22.42
2022-09-11T13:32:31.641Z,22.48
2022-09-11T13:37:46.334Z,22.43
2022-09-11T13:42:48.708Z,22.96
2022-09-11T13:47:49.478Z,23.09
2022-09-11T13:52:52.962Z,22.37
2022-09-11T13:58:00.269Z,21.87
2022-09-11T14:03:01.536Z,22.07
2022-09-11T14:08:24.620Z,21.48
2022-09-11T14:14:11.185Z,21.44
2022-09-11T14:19:17.494Z,20.99
2022-09-11T14:24:36.594Z,20.88
2022-09-11T14:29:37.508Z,20.42
2022-09-11T14:34:38.571Z,20.29
2022-09-11T14:39:47.048Z,20.15
2022-09-11T14:44:48.547Z,20.12
2022-09-11T14:49:54.875Z,19.95
2022-09-11T14:54:59.304Z,19.83
2022-09-11T15:00:00.373Z,19.79
2022-09-11T15:05:02.180Z,19.62
2022-09-11T15:10:03.368Z,19.63
2022-09-11T15:15:05.167Z,19.50
2022-09-11T15:20:08.671Z,19.52
2022-09-11T15:25:10.443Z,19.35
2022-09-11T15:30:11.752Z,19.12
2022-09-11T15:35:12.648Z,19.28
2022-09-11T15:40:15.324Z,19.84
2022-09-11T15:45:16.337Z,20.21
2022-09-11T15:50:23.623Z,20.26
2022-09-11T15:55:26.522Z,20.23
2022-09-11T16:00:28.711Z,20.22
2022-09-11T16:05:38.156Z,20.25
2022-09-11T16:10:39.091Z,20.53
2022-09-11T16:15:40.338Z,20.40
2022-09-11T16:20:42.750Z,20.52
2022-09-11T16:25:43.894Z,20.56
2022-09-11T16:30:48.398Z,20.46
2022-09-11T16:36:00.308Z,20.41
2022-09-11T16:41:15.866Z,20.22
2022-09-11T16:46:23.385Z,20.19
2022-09-11T16:51:24.933Z,20.12
2022-09-11T16:56:25.738Z,20.02
2022-09-11T17:01:28.543Z,19.73
2022-09-11T17:06:29.564Z,19.69
2022-09-11T17:11:32.022Z,19.50
2022-09-11T17:16:35.162Z,19.35
2022-09-11T17:21:37.179Z,19.09
2022-09-11T17:26:38.487Z,18.86
2022-09-11T17:31:40.074Z,18.70
2022-09-11T17:36:40.870Z,18.46
2022-09-11T17:41:43.393Z,18.13
2022-09-11T17:46:44.218Z,17.87
2022-09-11T17:51:45.055Z,17.50
2022-09-11T17:56:46.321Z,17.20
2022-09-11T18:01:47.180Z,17.00
2022-09-11T18:06:47.902Z,16.96
2022-09-11T18:11:50.451Z,16.82
2022-09-11T18:16:51.184Z,16.54
2022-09-11T18:21:52.823Z,16.28
2022-09-11T18:26:58.573Z,15.96
2022-09-11T18:32:02.946Z,15.80
2022-09-11T18:37:04.291Z,15.48
2022-09-11T18:42:06.391Z,15.47
2022-09-11T18:47:07.225Z,15.56
2022-09-11T18:52:08.391Z,15.45
2022-09-11T18:57:09.178Z,15.45
2022-09-11T19:02:10.387Z,15.30
2022-09-11T19:07:12.662Z,15.27
2022-09-11T19:12:15.451Z,15.13
2022-09-11T19:17:16.558Z,14.98
2022-09-11T19:22:22.285Z,14.95
2022-09-11T19:27:27.002Z,15.15
2022-09-11T19:32:27.779Z,15.07
2022-09-11T19:37:28.578Z,15.05
2022-09-11T19:42:29.714Z,14.93
2022-09-11T19:47:30.577Z,14.83
2022-09-11T19:52:33.179Z,14.84
2022-09-11T19:57:34.204Z,14.74
2022-09-11T20:02:35.690Z,14.73
2022-09-11T20:07:39.264Z,14.66
2022-09-11T20:12:40.147Z,14.60
2022-09-11T20:17:43.660Z,14.61
2022-09-11T20:22:44.391Z,14.65
2022-09-11T20:27:45.641Z,14.58
2022-09-11T20:32:46.387Z,14.62
2022-09-11T20:37:47.999Z,14.63
2022-09-11T20:42:48.868Z,14.57
2022-09-11T20:47:49.678Z,14.77
2022-09-11T20:52:50.447Z,14.70
2022-09-11T20:57:51.201Z,14.53
2022-09-11T21:02:51.986Z,14.49
2022-09-11T21:07:52.879Z,14.31
2022-09-11T21:12:54.538Z,14.18
2022-09-11T21:17:55.924Z,14.14
2022-09-11T21:22:56.688Z,13.86
2022-09-11T21:27:58.102Z,13.88
2022-09-11T21:32:58.827Z,13.98
2022-09-11T21:38:00.213Z,13.70
2022-09-11T21:43:01.459Z,13.58
2022-09-11T21:48:04.831Z,13.54
2022-09-11T21:53:06.791Z,13.60
2022-09-11T21:58:12.348Z,13.64
2022-09-11T22:03:15.472Z,13.57
2022-09-11T22:08:17.612Z,13.44
2022-09-11T22:13:18.960Z,13.32
2022-09-11T22:18:19.767Z,13.45
2022-09-11T22:23:21.088Z,13.46
2022-09-11T22:28:22.156Z,13.44
2022-09-11T22:33:23.669Z,13.31
2022-09-11T22:38:24.462Z,13.28
2022-09-11T22:43:25.288Z,13.32
2022-09-11T22:48:26.177Z,13.10
2022-09-11T22:53:27.911Z,13.02
2022-09-11T22:58:29.743Z,13.08
2022-09-11T23:03:30.768Z,13.09
2022-09-11T23:08:38.909Z,13.11
2022-09-11T23:13:41.912Z,12.95
2022-09-11T23:18:43.456Z,13.02
2022-09-11T23:23:52.634Z,13.03
2022-09-11T23:28:55.715Z,13.05
2022-09-11T23:33:59.619Z,12.98
2022-09-11T23:39:00.775Z,12.93
2022-09-11T23:44:02.812Z,12.93
2022-09-11T23:49:03.827Z,12.89
2022-09-11T23:54:05.002Z,12.84
2022-09-11T23:59:05.950Z,12.71
